createdAt,value
2022-09-11T00:01:33.333Z,1.55
2022-09-11T00:04:01.555Z,1.27
2022-09-11T00:06:30.583Z,1.50
2022-09-11T00:09:01.198Z,1.60
2022-09-11T00:11:41.216Z,1.30
2022-09-11T00:14:13.744Z,1.20
2022-09-11T00:16:44.806Z,1.30
2022-09-11T00:19:20.048Z,1.15
2022-09-11T00:21:50.452Z,1.30
2022-09-11T00:24:17.984Z,1.42
2022-09-11T00:26:47.537Z,1.25
2022-09-11T00:29:14.960Z,1.48
2022-09-11T00:31:42.345Z,1.40
2022-09-11T00:34:09.819Z,1.70
2022-09-11T00:36:41.280Z,1.70
2022-09-11T00:39:09.993Z,1.90
2022-09-11T00:41:40.632Z,1.65
2022-09-11T00:44:28.364Z,1.50
2022-09-11T00:47:05.456Z,1.38
2022-09-11T00:49:48.580Z,1.40
2022-09-11T00:52:28.200Z,1.25
2022-09-11T00:55:18.746Z,1.15
2022-09-11T00:57:51.263Z,1.00
2022-09-11T01:00:19.138Z,1.20
2022-09-11T01:02:49.146Z,1.27
2022-09-11T01:05:17.346Z,1.20
2022-09-11T01:07:47.408Z,1.40
2022-09-11T01:10:15.011Z,1.33
2022-09-11T01:13:05.502Z,1.20
2022-09-11T01:15:47.912Z,1.40
2022-09-11T01:21:04.290Z,1.00
2022-09-11T01:23:57.591Z,1.13
2022-09-11T01:26:42.483Z,1.10
2022-09-11T01:29:22.307Z,1.20
2022-09-11T01:32:08.574Z,1.27
2022-09-11T01:35:04.393Z,1.30
2022-09-11T01:37:40.627Z,1.27
2022-09-11T01:40:18.348Z,1.10
2022-09-11T01:42:49.097Z,1.15
2022-09-11T01:45:17.304Z,1.30
2022-09-11T01:47:47.340Z,1.20
2022-09-11T01:50:18.581Z,1.23
2022-09-11T01:52:58.282Z,1.42
2022-09-11T01:55:41.788Z,1.30
2022-09-11T01:58:13.166Z,1.10
2022-09-11T02:00:48.917Z,1.35
2022-09-11T02:05:49.149Z,1.33
2022-09-11T02:08:39.562Z,1.42
2022-09-11T02:11:10.384Z,1.23
2022-09-11T02:14:01.241Z,1.40
2022-09-11T02:16:44.058Z,1.30
2022-09-11T02:19:16.913Z,1.45
2022-09-11T02:21:45.439Z,1.52
2022-09-11T02:24:12.805Z,1.40
2022-09-11T02:26:48.079Z,1.33
2022-09-11T02:29:16.278Z,1.40
2022-09-11T02:31:45.443Z,1.40
2022-09-11T02:34:14.499Z,1.38
2022-09-11T02:37:11.580Z,1.20
2022-09-11T02:40:12.273Z,1.63
2022-09-11T02:42:58.482Z,1.92
2022-09-11T02:45:48.669Z,1.65
2022-09-11T02:48:37.302Z,1.88
2022-09-11T02:51:29.842Z,1.98
2022-09-11T02:54:17.248Z,1.70
2022-09-11T02:57:06.699Z,1.73
2022-09-11T02:59:49.923Z,1.88
2022-09-11T03:02:18.346Z,2.10
2022-09-11T03:04:49.701Z,2.28
2022-09-11T03:07:17.334Z,1.80
2022-09-11T03:09:45.067Z,2.30
2022-09-11T03:12:19.361Z,2.13
2022-09-11T03:14:49.755Z,1.90
2022-09-11T03:17:17.191Z,2.53
2022-09-11T03:19:44.605Z,2.08
2022-09-11T03:22:12.142Z,1.50
2022-09-11T03:24:39.748Z,1.83
2022-09-11T03:27:08.301Z,1.73
2022-09-11T03:29:35.938Z,2.13
2022-09-11T03:32:03.527Z,1.98
2022-09-11T03:34:31.753Z,1.42
2022-09-11T03:37:00.279Z,1.58
2022-09-11T03:39:28.738Z,1.77
2022-09-11T03:41:59.062Z,1.63
2022-09-11T03:44:27.485Z,1.92
2022-09-11T03:46:54.885Z,1.70
2022-09-11T03:49:22.250Z,1.33
2022-09-11T03:51:50.616Z,1.20
2022-09-11T03:54:19.243Z,1.65
2022-09-11T03:56:47.237Z,1.65
2022-09-11T03:59:16.450Z,1.38
2022-09-11T04:01:45.163Z,1.50
2022-09-11T04:04:13.132Z,1.75
2022-09-11T04:06:43.810Z,1.42
2022-09-11T04:09:11.359Z,1.73
2022-09-11T04:11:40.076Z,1.38
2022-09-11T04:14:14.493Z,1.55
2022-09-11T04:16:43.261Z,1.50
2022-09-11T04:19:11.618Z,1.52
2022-09-11T04:21:39.320Z,1.70
2022-09-11T04:24:06.936Z,1.40
2022-09-11T04:26:35.883Z,1.38
2022-09-11T04:29:13.001Z,1.48
2022-09-11T04:31:41.392Z,1.20
2022-09-11T04:34:10.300Z,1.20
2022-09-11T04:36:38.271Z,1.30
2022-09-11T04:39:07.880Z,1.17
2022-09-11T04:41:35.362Z,1.20
2022-09-11T04:44:05.509Z,1.38
2022-09-11T04:46:38.272Z,1.20
2022-09-11T04:49:09.226Z,1.35
2022-09-11T04:51:38.350Z,1.30
2022-09-11T04:54:08.512Z,1.15
2022-09-11T04:56:40.535Z,1.13
2022-09-11T04:59:19.573Z,1.58
2022-09-11T05:02:07.363Z,1.30
2022-09-11T05:04:38.941Z,1.40
2022-09-11T05:07:07.015Z,1.40
2022-09-11T05:09:35.599Z,1.50
2022-09-11T05:12:03.237Z,1.55
2022-09-11T05:14:33.208Z,1.45
2022-09-11T05:17:02.878Z,1.33
2022-09-11T05:19:31.563Z,1.58
2022-09-11T05:21:58.930Z,1.55
2022-09-11T05:24:26.386Z,1.40
2022-09-11T05:26:54.699Z,1.30
2022-09-11T05:29:32.241Z,1.50
2022-09-11T05:32:08.135Z,1.73
2022-09-11T05:34:35.727Z,1.50
2022-09-11T05:37:03.193Z,1.65
2022-09-11T05:39:35.508Z,1.55
2022-09-11T05:42:04.699Z,1.35
2022-09-11T05:44:36.953Z,1.75
2022-09-11T05:47:04.832Z,1.73
2022-09-11T05:49:32.731Z,1.98
2022-09-11T05:52:01.784Z,2.00
2022-09-11T05:54:31.144Z,2.58
2022-09-11T05:57:06.894Z,2.20
2022-09-11T05:59:36.607Z,1.95
2022-09-11T06:02:04.499Z,2.40
2022-09-11T06:04:40.725Z,2.63
2022-09-11T06:07:09.112Z,2.78
2022-09-11T06:09:37.403Z,3.78
2022-09-11T06:12:05.010Z,4.43
2022-09-11T06:14:32.754Z,4.60
2022-09-11T06:17:00.799Z,3.90
2022-09-11T06:19:31.380Z,2.65
2022-09-11T06:21:59.946Z,2.08
2022-09-11T06:24:31.982Z,1.38
2022-09-11T06:26:59.985Z,2.08
2022-09-11T06:29:28.996Z,1.40
2022-09-11T06:31:56.398Z,1.80
2022-09-11T06:34:28.081Z,1.65
2022-09-11T06:36:58.840Z,1.83
2022-09-11T06:39:26.794Z,1.67
2022-09-11T06:41:54.578Z,1.70
2022-09-11T06:44:28.210Z,1.83
2022-09-11T06:46:59.696Z,1.90
2022-09-11T06:49:27.628Z,1.88
2022-09-11T06:52:13.528Z,2.03
2022-09-11T06:54:46.006Z,1.77
2022-09-11T06:57:16.102Z,1.77
2022-09-11T06:59:43.507Z,1.77
2022-09-11T07:02:12.260Z,1.80
2022-09-11T07:04:39.787Z,1.70
2022-09-11T07:07:07.910Z,1.23
2022-09-11T07:09:37.096Z,1.30
2022-09-11T07:12:04.917Z,1.33
2022-09-11T07:14:32.953Z,1.35
2022-09-11T07:17:10.007Z,1.50
2022-09-11T07:19:37.479Z,1.60
2022-09-11T07:22:04.936Z,1.30
2022-09-11T07:24:33.486Z,1.13
2022-09-11T07:27:00.913Z,1.20
2022-09-11T07:29:35.657Z,1.13
2022-09-11T07:32:03.818Z,1.55
2022-09-11T07:34:31.583Z,1.40
2022-09-11T07:37:03.469Z,1.70
2022-09-11T07:39:31.080Z,1.92
2022-09-11T07:42:07.389Z,1.73
2022-09-11T07:44:35.854Z,2.35
2022-09-11T07:47:05.503Z,2.45
2022-09-11T07:49:38.176Z,2.30
2022-09-11T07:52:06.572Z,2.30
2022-09-11T07:54:44.563Z,2.80
2022-09-11T07:57:13.406Z,2.50
2022-09-11T07:59:41.704Z,2.33
2022-09-11T08:02:11.341Z,2.63
2022-09-11T08:04:38.969Z,2.25
2022-09-11T08:07:06.787Z,2.20
2022-09-11T08:09:35.416Z,2.47
2022-09-11T08:12:05.276Z,2.20
2022-09-11T08:14:36.972Z,2.67
2022-09-11T08:17:12.425Z,2.90
2022-09-11T08:19:40.765Z,2.25
2022-09-11T08:22:08.750Z,2.53
2022-09-11T08:24:42.767Z,2.72
2022-09-11T08:27:12.349Z,2.85
2022-09-11T08:29:42.308Z,2.33
2022-09-11T08:32:10.518Z,2.70
2022-09-11T08:34:39.648Z,2.72
2022-09-11T08:37:07.039Z,2.42
2022-09-11T08:39:36.195Z,2.70
2022-09-11T08:42:13.331Z,2.38
2022-09-11T08:44:51.263Z,2.65
2022-09-11T08:47:37.034Z,2.65
2022-09-11T08:50:21.184Z,2.28
2022-09-11T08:52:48.933Z,2.40
2022-09-11T08:55:30.014Z,2.40
2022-09-11T08:58:24.388Z,2.65
2022-09-11T09:00:58.783Z,2.08
2022-09-11T09:03:53.040Z,2.22
2022-09-11T09:06:45.002Z,2.33
2022-09-11T09:12:05.300Z,1.90
2022-09-11T09:14:32.912Z,1.98
2022-09-11T09:17:04.355Z,1.83
2022-09-11T09:19:56.516Z,1.92
2022-09-11T09:22:49.573Z,1.80
2022-09-11T09:25:21.159Z,1.83
2022-09-11T09:27:51.428Z,1.70
2022-09-11T09:30:24.570Z,2.08
2022-09-11T09:32:59.149Z,1.90
2022-09-11T09:35:35.761Z,2.10
2022-09-11T09:38:08.679Z,2.45
2022-09-11T09:40:36.846Z,2.10
2022-09-11T09:43:24.737Z,2.10
2022-09-11T09:45:59.071Z,2.25
2022-09-11T09:48:27.757Z,2.70
2022-09-11T09:50:56.328Z,2.40
2022-09-11T09:53:41.516Z,2.13
2022-09-11T09:56:13.496Z,2.40
2022-09-11T09:58:54.791Z,2.70
2022-09-11T10:01:44.890Z,2.05
2022-09-11T10:04:18.540Z,3.20
2022-09-11T10:06:47.839Z,2.78
2022-09-11T10:09:19.384Z,2.53
2022-09-11T10:12:06.377Z,2.40
2022-09-11T10:15:03.942Z,2.33
2022-09-11T10:17:32.848Z,2.20
2022-09-11T10:20:25.993Z,2.40
2022-09-11T10:22:55.299Z,1.50
2022-09-11T10:25:27.717Z,1.27
2022-09-11T10:28:19.552Z,1.40
2022-09-11T10:31:00.480Z,1.50
2022-09-11T10:33:41.217Z,1.42
2022-09-11T10:36:10.338Z,1.83
2022-09-11T10:38:47.445Z,1.60
2022-09-11T10:41:19.605Z,1.52
2022-09-11T10:44:01.626Z,1.60
2022-09-11T10:46:40.254Z,1.67
2022-09-11T10:49:08.975Z,1.60
2022-09-11T10:51:41.336Z,1.52
2022-09-11T10:54:23.530Z,1.55
2022-09-11T10:57:13.291Z,1.88
2022-09-11T11:00:03.117Z,1.55
2022-09-11T11:02:37.361Z,1.80
2022-09-11T11:05:19.913Z,1.88
2022-09-11T11:07:50.299Z,1.85
2022-09-11T11:10:39.878Z,1.70
2022-09-11T11:13:32.468Z,1.50
2022-09-11T11:16:18.983Z,1.92
2022-09-11T11:19:12.462Z,1.70
2022-09-11T11:21:55.656Z,2.03
2022-09-11T11:24:32.382Z,1.90
2022-09-11T11:27:27.728Z,2.30
2022-09-11T11:30:03.882Z,2.28
2022-09-11T11:33:03.163Z,1.90
2022-09-11T11:35:44.734Z,2.13
2022-09-11T11:38:22.314Z,2.03
2022-09-11T11:41:25.649Z,1.70
2022-09-11T11:43:56.413Z,1.88
2022-09-11T11:46:35.478Z,1.45
2022-09-11T11:49:10.020Z,1.30
2022-09-11T11:52:03.804Z,1.30
2022-09-11T11:54:49.561Z,1.50
2022-09-11T11:57:22.450Z,1.30
2022-09-11T11:59:55.622Z,1.30
2022-09-11T12:02:31.137Z,1.40
2022-09-11T12:05:05.391Z,0.98
2022-09-11T12:07:34.686Z,1.00
2022-09-11T12:10:05.525Z,1.60
2022-09-11T12:12:45.418Z,1.30
2022-09-11T12:15:25.007Z,1.33
2022-09-11T12:18:04.585Z,1.17
2022-09-11T12:20:52.946Z,1.33
2022-09-11T12:23:54.164Z,1.52
2022-09-11T12:26:22.684Z,1.20
2022-09-11T12:29:11.852Z,0.93
2022-09-11T12:31:51.751Z,1.10
2022-09-11T12:34:24.607Z,1.55
2022-09-11T12:37:02.246Z,1.00
2022-09-11T12:39:29.920Z,1.40
2022-09-11T12:42:28.300Z,1.27
2022-09-11T12:45:04.210Z,1.10
2022-09-11T12:47:38.753Z,1.10
2022-09-11T12:50:06.136Z,1.08
2022-09-11T12:52:40.282Z,1.20
2022-09-11T12:55:30.085Z,1.20
2022-09-11T12:58:21.655Z,1.10
2022-09-11T13:01:01.879Z,1.15
2022-09-11T13:03:30.148Z,1.20
2022-09-11T13:06:04.211Z,1.20
2022-09-11T13:08:36.445Z,1.00
2022-09-11T13:11:40.163Z,1.45
2022-09-11T13:14:30.652Z,1.35
2022-09-11T13:17:02.988Z,1.10
2022-09-11T13:19:39.321Z,1.40
2022-09-11T13:22:24.934Z,1.15
2022-09-11T13:25:14.517Z,1.20
2022-09-11T13:27:47.844Z,1.27
2022-09-11T13:30:17.399Z,1.50
2022-09-11T13:32:49.099Z,1.30
2022-09-11T13:35:23.762Z,1.30
2022-09-11T13:38:02.496Z,1.30
2022-09-11T13:40:34.142Z,1.17
2022-09-11T13:43:02.430Z,1.30
2022-09-11T13:45:29.892Z,1.40
2022-09-11T13:47:57.942Z,1.27
2022-09-11T13:50:25.420Z,1.00
2022-09-11T13:52:54.453Z,1.00
2022-09-11T13:55:27.239Z,1.17
2022-09-11T13:58:02.669Z,1.30
2022-09-11T14:00:48.100Z,1.13
2022-09-11T14:03:17.960Z,1.27
2022-09-11T14:05:55.202Z,1.30
2022-09-11T14:08:39.285Z,1.48
2022-09-11T14:11:15.283Z,1.33
2022-09-11T14:13:45.207Z,1.50
2022-09-11T14:16:15.554Z,1.30
2022-09-11T14:18:48.317Z,1.30
2022-09-11T14:21:25.875Z,1.50
2022-09-11T14:23:57.530Z,1.30
2022-09-11T14:26:41.571Z,1.40
2022-09-11T14:29:31.682Z,1.65
2022-09-11T14:32:30.924Z,1.45
2022-09-11T14:34:59.124Z,1.50
2022-09-11T14:37:28.678Z,1.50
2022-09-11T14:39:59.154Z,1.55
2022-09-11T14:42:29.731Z,1.70
2022-09-11T14:44:57.213Z,1.50
2022-09-11T14:47:27.033Z,1.55
2022-09-11T14:49:56.295Z,1.20
2022-09-11T14:52:28.749Z,1.42
2022-09-11T14:54:56.694Z,1.15
2022-09-11T14:57:29.016Z,1.52
2022-09-11T14:59:56.585Z,1.60
2022-09-11T15:02:26.404Z,1.50
2022-09-11T15:04:55.916Z,1.20
2022-09-11T15:07:24.207Z,1.40
2022-09-11T15:09:52.791Z,1.27
2022-09-11T15:12:21.936Z,1.20
2022-09-11T15:14:56.913Z,1.17
2022-09-11T15:17:25.553Z,1.40
2022-09-11T15:19:53.494Z,1.30
2022-09-11T15:22:20.887Z,1.20
2022-09-11T15:24:48.809Z,1.20
2022-09-11T15:27:17.209Z,1.30
2022-09-11T15:29:45.158Z,1.30
2022-09-11T15:32:14.386Z,1.40
2022-09-11T15:34:42.385Z,1.40
2022-09-11T15:37:10.891Z,1.40
2022-09-11T15:39:38.355Z,1.50
2022-09-11T15:42:07.459Z,1.42
2022-09-11T15:44:36.461Z,1.30
2022-09-11T15:47:04.692Z,1.45
2022-09-11T15:49:32.073Z,1.40
2022-09-11T15:52:00.404Z,1.27
2022-09-11T15:54:28.021Z,1.50
2022-09-11T15:56:55.625Z,1.45
2022-09-11T15:59:23.457Z,1.38
2022-09-11T16:01:50.903Z,1.42
2022-09-11T16:04:21.855Z,1.42
2022-09-11T16:06:49.644Z,1.38
2022-09-11T16:09:21.705Z,1.80
2022-09-11T16:11:50.518Z,1.40
2022-09-11T16:14:23.499Z,1.85
2022-09-11T16:16:51.743Z,1.60
2022-09-11T16:19:21.842Z,1.48
2022-09-11T16:21:50.304Z,1.70
2022-09-11T16:24:18.351Z,1.52
2022-09-11T16:26:46.338Z,1.75
2022-09-11T16:29:15.431Z,1.70
2022-09-11T16:31:43.009Z,1.52
2022-09-11T16:34:11.189Z,1.52
2022-09-11T16:36:38.784Z,1.98
2022-09-11T16:39:09.024Z,1.45
2022-09-11T16:41:37.502Z,1.58
2022-09-11T16:44:07.693Z,1.52
2022-09-11T16:46:35.576Z,1.60
2022-09-11T16:49:03.166Z,1.77
2022-09-11T16:51:30.846Z,1.80
2022-09-11T16:53:58.271Z,1.80
2022-09-11T16:56:26.540Z,1.60
2022-09-11T16:58:54.746Z,1.50
2022-09-11T17:01:24.597Z,1.50
2022-09-11T17:03:54.541Z,1.70
2022-09-11T17:06:23.592Z,1.50
2022-09-11T17:08:52.007Z,1.60
2022-09-11T17:11:21.357Z,1.73
2022-09-11T17:13:49.252Z,1.52
2022-09-11T17:16:19.601Z,1.70
2022-09-11T17:18:53.871Z,1.70
2022-09-11T17:21:24.131Z,1.90
2022-09-11T17:23:53.559Z,1.73
2022-09-11T17:26:22.152Z,1.70
2022-09-11T17:28:50.846Z,1.60
2022-09-11T17:31:19.577Z,1.70
2022-09-11T17:33:48.713Z,1.90
2022-09-11T17:36:19.469Z,1.80
2022-09-11T17:38:48.874Z,1.95
2022-09-11T17:41:16.708Z,1.65
2022-09-11T17:43:44.541Z,1.77
2022-09-11T17:46:15.163Z,1.95
2022-09-11T17:48:43.553Z,2.15
2022-09-11T17:51:16.305Z,2.25
2022-09-11T17:53:48.296Z,2.10
2022-09-11T17:56:18.463Z,2.00
2022-09-11T17:58:50.558Z,2.33
2022-09-11T18:01:18.075Z,2.50
2022-09-11T18:03:53.977Z,2.10
2022-09-11T18:06:36.708Z,2.08
2022-09-11T18:09:16.080Z,2.10
2022-09-11T18:11:45.724Z,2.40
2022-09-11T18:14:14.775Z,2.42
2022-09-11T18:16:45.308Z,2.15
2022-09-11T18:19:14.018Z,2.10
2022-09-11T18:21:41.574Z,2.10
2022-09-11T18:24:09.912Z,2.33
2022-09-11T18:26:40.074Z,2.35
2022-09-11T18:29:11.279Z,3.80
2022-09-11T18:31:44.054Z,2.88
2022-09-11T18:34:13.345Z,2.70
2022-09-11T18:36:41.024Z,2.50
2022-09-11T18:39:10.656Z,2.67
2022-09-11T18:41:38.290Z,2.10
2022-09-11T18:44:13.322Z,2.42
2022-09-11T18:46:44.932Z,2.55
2022-09-11T18:49:14.217Z,2.90
2022-09-11T18:51:42.320Z,2.83
2022-09-11T18:54:14.982Z,2.78
2022-09-11T18:56:42.866Z,3.10
2022-09-11T18:59:10.919Z,2.60
2022-09-11T19:01:39.866Z,2.85
2022-09-11T19:04:10.246Z,2.83
2022-09-11T19:06:38.966Z,2.95
2022-09-11T19:09:10.178Z,2.72
2022-09-11T19:11:38.368Z,2.50
2022-09-11T19:14:08.489Z,2.78
2022-09-11T19:16:37.076Z,3.40
2022-09-11T19:19:07.272Z,3.35
2022-09-11T19:21:35.218Z,3.13
2022-09-11T19:24:02.866Z,3.13
2022-09-11T19:26:33.538Z,3.28
2022-09-11T19:29:01.073Z,2.80
2022-09-11T19:31:30.110Z,2.90
2022-09-11T19:34:00.794Z,2.67
2022-09-11T19:36:30.802Z,2.70
2022-09-11T19:39:01.577Z,2.35
2022-09-11T19:41:31.672Z,2.88
2022-09-11T19:44:01.627Z,3.25
2022-09-11T19:46:30.885Z,2.70
2022-09-11T19:49:02.806Z,3.20
2022-09-11T19:51:36.184Z,3.53
2022-09-11T19:54:05.321Z,3.70
2022-09-11T19:56:35.915Z,3.08
2022-09-11T19:59:04.894Z,3.10
2022-09-11T20:01:32.335Z,3.20
2022-09-11T20:04:00.930Z,2.88
2022-09-11T20:06:34.233Z,3.25
2022-09-11T20:09:29.341Z,3.08
2022-09-11T20:11:50.212Z,3.33
2022-09-11T20:14:17.598Z,3.38
2022-09-11T20:16:45.114Z,3.30
2022-09-11T20:19:12.542Z,3.17
2022-09-11T20:21:40.576Z,3.33
2022-09-11T20:24:07.992Z,3.40
2022-09-11T20:26:35.777Z,3.30
2022-09-11T20:29:11.702Z,3.08
2022-09-11T20:31:47.030Z,3.00
2022-09-11T20:34:19.535Z,3.35
2022-09-11T20:36:47.919Z,3.63
2022-09-11T20:39:15.917Z,3.17
2022-09-11T20:41:43.643Z,3.30
2022-09-11T20:44:11.797Z,2.20
2022-09-11T20:46:39.518Z,2.38
2022-09-11T20:49:06.937Z,2.17
2022-09-11T20:51:34.912Z,1.90
2022-09-11T20:54:02.525Z,1.98
2022-09-11T20:56:30.250Z,2.00
2022-09-11T20:58:58.296Z,1.65
2022-09-11T21:01:27.459Z,1.58
2022-09-11T21:03:57.106Z,1.60
2022-09-11T21:06:27.187Z,1.88
2022-09-11T21:08:57.405Z,1.52
2022-09-11T21:11:26.681Z,1.45
2022-09-11T21:13:54.802Z,1.20
2022-09-11T21:16:22.266Z,1.40
2022-09-11T21:18:55.050Z,1.35
2022-09-11T21:21:23.618Z,1.40
2022-09-11T21:23:57.880Z,1.40
2022-09-11T21:26:27.448Z,1.33
2022-09-11T21:28:57.297Z,1.60
2022-09-11T21:31:25.307Z,1.48
2022-09-11T21:33:53.032Z,1.35
2022-09-11T21:36:20.422Z,1.25
2022-09-11T21:38:48.040Z,1.42
2022-09-11T21:41:15.601Z,1.45
2022-09-11T21:43:43.022Z,1.40
2022-09-11T21:46:10.521Z,1.13
2022-09-11T21:48:40.578Z,1.20
2022-09-11T21:51:12.383Z,1.00
2022-09-11T21:53:41.687Z,1.25
2022-09-11T21:56:24.902Z,1.13
2022-09-11T21:58:53.056Z,1.05
2022-09-11T22:01:21.895Z,1.30
2022-09-11T22:03:49.833Z,0.88
2022-09-11T22:06:17.918Z,0.85
2022-09-11T22:08:46.864Z,1.00
2022-09-11T22:11:15.457Z,0.82
2022-09-11T22:13:43.320Z,1.10
2022-09-11T22:16:13.769Z,1.00
2022-09-11T22:18:41.559Z,2.80
2022-09-11T22:21:10.368Z,1.05
2022-09-11T22:23:38.299Z,1.05
2022-09-11T22:26:10.064Z,0.73
2022-09-11T22:28:37.931Z,0.93
2022-09-11T22:31:16.910Z,0.70
2022-09-11T22:33:44.752Z,0.70
2022-09-11T22:36:14.940Z,0.70
2022-09-11T22:38:43.018Z,0.80
2022-09-11T22:41:10.664Z,0.93
2022-09-11T22:43:38.456Z,1.33
2022-09-11T22:46:06.041Z,0.82
2022-09-11T22:48:33.808Z,1.08
2022-09-11T22:51:01.865Z,1.40
2022-09-11T22:53:30.206Z,1.10
2022-09-11T22:55:57.674Z,0.80
2022-09-11T22:58:25.264Z,1.05
2022-09-11T23:00:55.395Z,1.08
2022-09-11T23:03:23.258Z,1.15
2022-09-11T23:06:16.431Z,1.00
2022-09-11T23:08:45.808Z,1.17
2022-09-11T23:11:15.390Z,0.90
2022-09-11T23:13:43.554Z,0.90
2022-09-11T23:16:17.599Z,0.90
2022-09-11T23:18:45.862Z,0.70
2022-09-11T23:21:14.581Z,0.60
2022-09-11T23:23:42.984Z,0.90
2022-09-11T23:26:12.534Z,0.93
2022-09-11T23:28:40.492Z,0.70
2022-09-11T23:31:17.375Z,0.80
2022-09-11T23:33:44.958Z,0.68
2022-09-11T23:36:14.154Z,0.60
2022-09-11T23:38:45.001Z,0.70
2022-09-11T23:41:12.580Z,0.85
2022-09-11T23:43:40.388Z,0.85
2022-09-11T23:46:08.320Z,0.95
2022-09-11T23:48:36.025Z,0.95
2022-09-11T23:51:03.607Z,0.98
2022-09-11T23:53:31.013Z,0.90
2022-09-11T23:55:58.515Z,0.98
2022-09-11T23:58:26.354Z,0.60
